sensor_id;sensor_type;location;lat;lon;timestamp;pressure;altitude;pressure_sealevel;temperature;humidity
69772;BME280;57046;45.988;18.664;2023-01-30T00:02:20;101474.41;;;1.86;82.48
69772;BME280;57046;45.988;18.664;2023-01-30T00:04:45;101472.56;;;1.87;82.16
69772;BME280;57046;45.988;18.664;2023-01-30T00:07:11;101481.47;;;1.92;82.38
69772;BME280;57046;45.988;18.664;2023-01-30T00:09:36;101471.84;;;1.91;81.30
69772;BME280;57046;45.988;18.664;2023-01-30T00:12:02;101472.19;;;1.95;81.98
69772;BME280;57046;45.988;18.664;2023-01-30T00:14:28;101476.34;;;1.91;82.16
69772;BME280;57046;45.988;18.664;2023-01-30T00:16:53;101465.69;;;1.91;81.88
69772;BME280;57046;45.988;18.664;2023-01-30T00:19:19;101472.09;;;1.90;82.48
69772;BME280;57046;45.988;18.664;2023-01-30T00:21:44;101430.47;;;1.61;83.11
69772;BME280;57046;45.988;18.664;2023-01-30T00:24:10;101448.19;;;1.67;83.82
69772;BME280;57046;45.988;18.664;2023-01-30T00:26:35;101461.09;;;1.86;83.63
69772;BME280;57046;45.988;18.664;2023-01-30T00:29:01;101461.09;;;1.86;83.81
69772;BME280;57046;45.988;18.664;2023-01-30T00:31:26;101461.28;;;1.96;83.33
69772;BME280;57046;45.988;18.664;2023-01-30T00:33:52;101450.28;;;1.93;83.17
69772;BME280;57046;45.988;18.664;2023-01-30T00:36:17;101453.38;;;2.01;83.30
69772;BME280;57046;45.988;18.664;2023-01-30T00:38:42;101429.50;;;1.78;84.54
69772;BME280;57046;45.988;18.664;2023-01-30T00:41:08;101453.63;;;2.00;84.29
69772;BME280;57046;45.988;18.664;2023-01-30T00:43:33;101449.66;;;2.02;84.07
69772;BME280;57046;45.988;18.664;2023-01-30T00:45:59;101444.91;;;2.04;83.91
69772;BME280;57046;45.988;18.664;2023-01-30T00:48:26;101441.81;;;1.96;83.60
69772;BME280;57046;45.988;18.664;2023-01-30T00:50:52;101444.53;;;1.84;83.67
69772;BME280;57046;45.988;18.664;2023-01-30T00:53:17;101436.13;;;1.76;83.73
69772;BME280;57046;45.988;18.664;2023-01-30T00:55:43;101439.72;;;1.70;83.85
69772;BME280;57046;45.988;18.664;2023-01-30T00:58:08;101434.41;;;1.70;84.00
69772;BME280;57046;45.988;18.664;2023-01-30T01:00:34;101427.66;;;1.67;84.46
69772;BME280;57046;45.988;18.664;2023-01-30T01:03:00;101417.78;;;1.51;84.61
69772;BME280;57046;45.988;18.664;2023-01-30T01:05:26;101422.41;;;1.56;84.23
69772;BME280;57046;45.988;18.664;2023-01-30T01:07:52;101423.56;;;1.60;84.46
69772;BME280;57046;45.988;18.664;2023-01-30T01:10:18;101408.53;;;1.42;84.64
69772;BME280;57046;45.988;18.664;2023-01-30T01:12:44;101420.22;;;1.41;84.30
69772;BME280;57046;45.988;18.664;2023-01-30T01:15:13;101407.53;;;1.31;84.19
69772;BME280;57046;45.988;18.664;2023-01-30T01:17:40;101415.16;;;1.39;84.16
69772;BME280;57046;45.988;18.664;2023-01-30T01:20:06;101410.19;;;1.31;84.61
69772;BME280;57046;45.988;18.664;2023-01-30T01:22:32;101387.75;;;1.27;84.82
69772;BME280;57046;45.988;18.664;2023-01-30T01:24:57;101401.25;;;1.37;84.93
69772;BME280;57046;45.988;18.664;2023-01-30T01:27:23;101384.75;;;1.24;85.04
69772;BME280;57046;45.988;18.664;2023-01-30T01:29:48;101405.41;;;1.33;84.82
69772;BME280;57046;45.988;18.664;2023-01-30T01:32:14;101391.91;;;1.35;84.96
69772;BME280;57046;45.988;18.664;2023-01-30T01:34:39;101383.09;;;1.34;84.51
69772;BME280;57046;45.988;18.664;2023-01-30T01:37:05;101350.88;;;1.08;84.39
69772;BME280;57046;45.988;18.664;2023-01-30T01:39:30;101388.00;;;1.26;85.13
69772;BME280;57046;45.988;18.664;2023-01-30T01:41:55;101358.13;;;1.24;84.38
69772;BME280;57046;45.988;18.664;2023-01-30T01:44:25;101366.09;;;1.24;84.51
69772;BME280;57046;45.988;18.664;2023-01-30T01:46:58;101352.13;;;1.17;84.30
69772;BME280;57046;45.988;18.664;2023-01-30T01:49:30;101353.19;;;1.04;85.24
69772;BME280;57046;45.988;18.664;2023-01-30T01:52:00;101350.88;;;0.96;84.98
69772;BME280;57046;45.988;18.664;2023-01-30T01:57:03;101346.25;;;1.03;84.57
69772;BME280;57046;45.988;18.664;2023-01-30T01:59:34;101333.66;;;0.98;84.64
69772;BME280;57046;45.988;18.664;2023-01-30T02:02:04;101342.31;;;1.06;84.85
69772;BME280;57046;45.988;18.664;2023-01-30T02:04:32;101339.91;;;1.04;84.64
69772;BME280;57046;45.988;18.664;2023-01-30T02:06:58;101331.78;;;0.99;84.29
69772;BME280;57046;45.988;18.664;2023-01-30T02:09:24;101326.59;;;0.92;84.28
69772;BME280;57046;45.988;18.664;2023-01-30T02:11:55;101330.06;;;0.93;84.01
69772;BME280;57046;45.988;18.664;2023-01-30T02:14:22;101321.97;;;0.99;84.08
69772;BME280;57046;45.988;18.664;2023-01-30T02:16:48;101338.88;;;0.93;83.62
69772;BME280;57046;45.988;18.664;2023-01-30T02:33:42;101313.25;;;0.64;84.62
69772;BME280;57046;45.988;18.664;2023-01-30T02:36:11;101311.63;;;0.75;84.53
69772;BME280;57046;45.988;18.664;2023-01-30T02:44:05;101316.00;;;0.69;84.77
69772;BME280;57046;45.988;18.664;2023-01-30T02:51:48;101297.25;;;0.76;84.76
69772;BME280;57046;45.988;18.664;2023-01-30T02:54:14;101280.88;;;0.67;84.22
69772;BME280;57046;45.988;18.664;2023-01-30T02:56:55;101296.09;;;0.72;83.91
69772;BME280;57046;45.988;18.664;2023-01-30T02:59:36;101283.06;;;0.59;84.82
69772;BME280;57046;45.988;18.664;2023-01-30T03:15:49;101284.13;;;0.46;85.22
69772;BME280;57046;45.988;18.664;2023-01-30T03:18:16;101279.97;;;0.50;85.26
69772;BME280;57046;45.988;18.664;2023-01-30T03:20:43;101283.91;;;0.47;84.59
69772;BME280;57046;45.988;18.664;2023-01-30T03:23:08;101273.97;;;0.43;84.80
69772;BME280;57046;45.988;18.664;2023-01-30T03:25:35;101281.00;;;0.61;84.17
69772;BME280;57046;45.988;18.664;2023-01-30T03:28:02;101261.84;;;0.47;84.84
69772;BME280;57046;45.988;18.664;2023-01-30T03:30:29;101264.28;;;0.37;84.86
69772;BME280;57046;45.988;18.664;2023-01-30T03:32:54;101254.19;;;0.27;85.52
69772;BME280;57046;45.988;18.664;2023-01-30T03:35:19;101260.81;;;0.36;84.94
69772;BME280;57046;45.988;18.664;2023-01-30T03:37:46;101258.56;;;0.45;84.92
69772;BME280;57046;45.988;18.664;2023-01-30T03:40:13;101256.75;;;0.34;85.34
69772;BME280;57046;45.988;18.664;2023-01-30T03:42:40;101251.78;;;0.37;84.74
69772;BME280;57046;45.988;18.664;2023-01-30T03:45:06;101229.16;;;0.23;85.12
69772;BME280;57046;45.988;18.664;2023-01-30T03:47:31;101233.41;;;0.24;85.39
69772;BME280;57046;45.988;18.664;2023-01-30T03:49:57;101237.09;;;0.35;84.96
69772;BME280;57046;45.988;18.664;2023-01-30T03:52:22;101240.13;;;0.27;85.30
69772;BME280;57046;45.988;18.664;2023-01-30T03:54:48;101240.22;;;0.32;85.25
69772;BME280;57046;45.988;18.664;2023-01-30T03:57:13;101238.16;;;0.34;85.25
69772;BME280;57046;45.988;18.664;2023-01-30T03:59:38;101220.47;;;0.28;84.93
69772;BME280;57046;45.988;18.664;2023-01-30T04:02:04;101230.41;;;0.32;84.90
69772;BME280;57046;45.988;18.664;2023-01-30T04:04:29;101218.28;;;0.25;84.64
69772;BME280;57046;45.988;18.664;2023-01-30T04:06:54;101230.88;;;0.29;84.28
69772;BME280;57046;45.988;18.664;2023-01-30T04:09:20;101235.38;;;0.29;85.00
69772;BME280;57046;45.988;18.664;2023-01-30T04:11:45;101214.25;;;0.22;84.94
69772;BME280;57046;45.988;18.664;2023-01-30T04:14:10;101220.03;;;0.19;85.38
69772;BME280;57046;45.988;18.664;2023-01-30T04:16:36;101222.44;;;0.21;84.99
69772;BME280;57046;45.988;18.664;2023-01-30T04:19:01;101216.44;;;0.14;85.33
69772;BME280;57046;45.988;18.664;2023-01-30T04:21:27;101213.09;;;0.18;85.76
69772;BME280;57046;45.988;18.664;2023-01-30T04:23:52;101212.19;;;0.13;84.98
69772;BME280;57046;45.988;18.664;2023-01-30T04:26:17;101195.91;;;0.09;84.98
69772;BME280;57046;45.988;18.664;2023-01-30T04:28:43;101213.78;;;0.14;84.99
69772;BME280;57046;45.988;18.664;2023-01-30T04:31:09;101219.09;;;0.14;85.03
69772;BME280;57046;45.988;18.664;2023-01-30T04:33:34;101208.47;;;0.14;84.68
69772;BME280;57046;45.988;18.664;2023-01-30T04:36:01;101207.34;;;0.10;85.03
69772;BME280;57046;45.988;18.664;2023-01-30T04:38:28;101191.16;;;0.11;85.36
69772;BME280;57046;45.988;18.664;2023-01-30T04:40:55;101192.19;;;0.10;84.49
69772;BME280;57046;45.988;18.664;2023-01-30T04:43:23;101196.72;;;0.10;84.64
69772;BME280;57046;45.988;18.664;2023-01-30T04:45:49;101174.88;;;-0.04;84.63
69772;BME280;57046;45.988;18.664;2023-01-30T04:48:16;101187.78;;;0.04;84.68
69772;BME280;57046;45.988;18.664;2023-01-30T04:50:43;101189.06;;;0.02;84.59
69772;BME280;57046;45.988;18.664;2023-01-30T04:53:11;101172.81;;;-0.14;85.09
69772;BME280;57046;45.988;18.664;2023-01-30T04:55:36;101170.38;;;-0.15;85.46
69772;BME280;57046;45.988;18.664;2023-01-30T04:58:02;101184.34;;;-0.20;86.53
69772;BME280;57046;45.988;18.664;2023-01-30T05:00:28;101169.59;;;-0.27;86.91
69772;BME280;57046;45.988;18.664;2023-01-30T05:02:53;101174.78;;;-0.21;87.16
69772;BME280;57046;45.988;18.664;2023-01-30T05:05:19;101168.78;;;-0.28;87.13
69772;BME280;57046;45.988;18.664;2023-01-30T05:07:44;101168.31;;;-0.25;86.92
69772;BME280;57046;45.988;18.664;2023-01-30T05:10:10;101188.94;;;-0.27;86.94
69772;BME280;57046;45.988;18.664;2023-01-30T05:12:35;101178.94;;;-0.25;86.82
69772;BME280;57046;45.988;18.664;2023-01-30T05:15:01;101187.59;;;-0.18;86.63
69772;BME280;57046;45.988;18.664;2023-01-30T05:17:26;101181.00;;;-0.15;86.00
69772;BME280;57046;45.988;18.664;2023-01-30T05:19:51;101197.16;;;-0.17;86.00
69772;BME280;57046;45.988;18.664;2023-01-30T05:22:17;101187.94;;;-0.14;85.74
69772;BME280;57046;45.988;18.664;2023-01-30T05:24:42;101180.09;;;-0.21;85.66
69772;BME280;57046;45.988;18.664;2023-01-30T05:27:08;101183.19;;;-0.35;85.61
69772;BME280;57046;45.988;18.664;2023-01-30T05:29:33;101192.53;;;-0.33;85.42
69772;BME280;57046;45.988;18.664;2023-01-30T05:31:59;101206.03;;;-0.23;85.19
69772;BME280;57046;45.988;18.664;2023-01-30T05:34:24;101206.28;;;-0.24;84.92
69772;BME280;57046;45.988;18.664;2023-01-30T05:36:50;101215.38;;;-0.20;84.99
69772;BME280;57046;45.988;18.664;2023-01-30T05:39:15;101194.16;;;-0.32;84.93
69772;BME280;57046;45.988;18.664;2023-01-30T05:41:40;101221.50;;;-0.20;84.91
69772;BME280;57046;45.988;18.664;2023-01-30T05:44:06;101207.78;;;-0.28;84.97
69772;BME280;57046;45.988;18.664;2023-01-30T05:46:32;101212.50;;;-0.30;84.52
69772;BME280;57046;45.988;18.664;2023-01-30T05:48:57;101203.81;;;-0.37;84.23
69772;BME280;57046;45.988;18.664;2023-01-30T05:51:24;101220.72;;;-0.32;84.19
69772;BME280;57046;45.988;18.664;2023-01-30T05:53:50;101221.72;;;-0.33;83.82
69772;BME280;57046;45.988;18.664;2023-01-30T05:56:16;101235.50;;;-0.13;93.43
69772;BME280;57046;45.988;18.664;2023-01-30T05:58:42;101226.47;;;-0.23;87.01
69772;BME280;57046;45.988;18.664;2023-01-30T06:01:11;101231.69;;;-0.28;85.80
69772;BME280;57046;45.988;18.664;2023-01-30T06:03:37;101218.16;;;-0.38;84.95
69772;BME280;57046;45.988;18.664;2023-01-30T06:06:04;101211.78;;;-0.37;85.10
69772;BME280;57046;45.988;18.664;2023-01-30T06:08:30;101213.66;;;0.32;100.00
69772;BME280;57046;45.988;18.664;2023-01-30T06:11:06;101203.28;;;-0.05;93.38
69772;BME280;57046;45.988;18.664;2023-01-30T06:13:33;101194.84;;;-0.25;89.37
69772;BME280;57046;45.988;18.664;2023-01-30T06:15:58;101204.31;;;-0.29;88.68
69772;BME280;57046;45.988;18.664;2023-01-30T06:18:24;101196.78;;;-0.43;87.70
69772;BME280;57046;45.988;18.664;2023-01-30T06:20:50;101202.34;;;-0.45;87.13
69772;BME280;57046;45.988;18.664;2023-01-30T06:23:17;101213.06;;;-0.40;86.25
69772;BME280;57046;45.988;18.664;2023-01-30T06:25:43;101203.94;;;-0.44;86.22
69772;BME280;57046;45.988;18.664;2023-01-30T06:28:09;101197.38;;;-0.41;85.83
69772;BME280;57046;45.988;18.664;2023-01-30T06:30:34;101199.22;;;-0.42;85.84
69772;BME280;57046;45.988;18.664;2023-01-30T06:33:00;101195.63;;;-0.47;86.16
69772;BME280;57046;45.988;18.664;2023-01-30T06:35:25;101202.44;;;-0.40;86.24
69772;BME280;57046;45.988;18.664;2023-01-30T06:37:51;101195.75;;;-0.42;86.30
69772;BME280;57046;45.988;18.664;2023-01-30T06:40:17;101185.22;;;-0.61;87.29
69772;BME280;57046;45.988;18.664;2023-01-30T06:42:46;101178.78;;;-0.65;87.39
69772;BME280;57046;45.988;18.664;2023-01-30T06:45:16;101180.69;;;-0.83;88.90
69772;BME280;57046;45.988;18.664;2023-01-30T06:50:11;101160.63;;;-0.79;88.61
69772;BME280;57046;45.988;18.664;2023-01-30T06:52:40;101179.00;;;-0.66;89.43
69772;BME280;57046;45.988;18.664;2023-01-30T06:55:07;101183.28;;;-0.65;89.77
69772;BME280;57046;45.988;18.664;2023-01-30T06:57:40;101192.72;;;-0.58;89.61
69772;BME280;57046;45.988;18.664;2023-01-30T07:00:15;101191.25;;;-0.54;89.70
69772;BME280;57046;45.988;18.664;2023-01-30T07:02:42;101181.91;;;-0.56;89.70
69772;BME280;57046;45.988;18.664;2023-01-30T07:05:08;101195.41;;;-0.46;90.10
69772;BME280;57046;45.988;18.664;2023-01-30T07:07:35;101185.34;;;-0.56;90.56
69772;BME280;57046;45.988;18.664;2023-01-30T07:10:01;101202.69;;;-0.41;90.85
69772;BME280;57046;45.988;18.664;2023-01-30T07:12:27;101205.81;;;-0.33;90.59
69772;BME280;57046;45.988;18.664;2023-01-30T07:14:53;101179.16;;;-0.38;90.79
69772;BME280;57046;45.988;18.664;2023-01-30T07:17:22;101191.59;;;-0.27;91.15
69772;BME280;57046;45.988;18.664;2023-01-30T07:19:48;101183.50;;;-0.43;91.68
69772;BME280;57046;45.988;18.664;2023-01-30T07:22:14;101205.00;;;-0.22;91.62
69772;BME280;57046;45.988;18.664;2023-01-30T07:24:40;101202.13;;;-0.20;91.77
69772;BME280;57046;45.988;18.664;2023-01-30T07:27:06;101196.38;;;-0.17;92.00
69772;BME280;57046;45.988;18.664;2023-01-30T07:29:31;101192.19;;;-0.13;91.60
69772;BME280;57046;45.988;18.664;2023-01-30T07:31:58;101183.31;;;-0.19;92.32
69772;BME280;57046;45.988;18.664;2023-01-30T07:34:24;101180.66;;;-0.19;92.83
69772;BME280;57046;45.988;18.664;2023-01-30T07:36:50;101186.66;;;-0.12;93.07
69772;BME280;57046;45.988;18.664;2023-01-30T07:39:15;101182.38;;;-0.13;92.62
69772;BME280;57046;45.988;18.664;2023-01-30T07:41:40;101170.72;;;-0.12;92.37
69772;BME280;57046;45.988;18.664;2023-01-30T07:44:06;101168.06;;;-0.12;92.62
69772;BME280;57046;45.988;18.664;2023-01-30T07:46:31;101163.91;;;-0.08;92.52
69772;BME280;57046;45.988;18.664;2023-01-30T07:48:56;101174.28;;;0.06;92.97
69772;BME280;57046;45.988;18.664;2023-01-30T07:51:22;101158.81;;;0.03;92.87
69772;BME280;57046;45.988;18.664;2023-01-30T07:53:50;101154.66;;;0.07;92.19
69772;BME280;57046;45.988;18.664;2023-01-30T07:56:15;101168.03;;;0.23;91.42
69772;BME280;57046;45.988;18.664;2023-01-30T07:58:41;101169.63;;;0.24;92.01
69772;BME280;57046;45.988;18.664;2023-01-30T08:01:06;101164.44;;;0.29;91.35
69772;BME280;57046;45.988;18.664;2023-01-30T08:03:31;101166.63;;;0.32;90.70
69772;BME280;57046;45.988;18.664;2023-01-30T08:05:57;101155.31;;;0.37;90.83
69772;BME280;57046;45.988;18.664;2023-01-30T08:08:22;101147.06;;;0.38;92.07
69772;BME280;57046;45.988;18.664;2023-01-30T08:10:48;101150.00;;;0.37;92.69
69772;BME280;57046;45.988;18.664;2023-01-30T08:13:14;101157.78;;;0.55;92.94
69772;BME280;57046;45.988;18.664;2023-01-30T08:15:39;101133.38;;;0.58;93.29
69772;BME280;57046;45.988;18.664;2023-01-30T08:18:05;101134.84;;;0.66;92.71
69772;BME280;57046;45.988;18.664;2023-01-30T08:20:30;101139.22;;;0.72;91.23
69772;BME280;57046;45.988;18.664;2023-01-30T08:22:57;101114.31;;;0.61;90.92
69772;BME280;57046;45.988;18.664;2023-01-30T08:25:23;101117.47;;;0.75;89.67
69772;BME280;57046;45.988;18.664;2023-01-30T08:27:48;101145.47;;;0.94;89.24
69772;BME280;57046;45.988;18.664;2023-01-30T08:30:14;101133.81;;;0.95;89.11
69772;BME280;57046;45.988;18.664;2023-01-30T08:32:39;101129.75;;;0.92;89.39
69772;BME280;57046;45.988;18.664;2023-01-30T08:35:05;101139.69;;;1.14;89.08
69772;BME280;57046;45.988;18.664;2023-01-30T08:37:30;101125.75;;;1.07;88.92
69772;BME280;57046;45.988;18.664;2023-01-30T08:39:56;101134.31;;;1.25;89.18
69772;BME280;57046;45.988;18.664;2023-01-30T08:42:21;101127.69;;;1.28;88.60
69772;BME280;57046;45.988;18.664;2023-01-30T08:44:46;101107.94;;;1.24;88.61
69772;BME280;57046;45.988;18.664;2023-01-30T08:47:12;101126.88;;;1.44;88.11
69772;BME280;57046;45.988;18.664;2023-01-30T08:49:37;101115.25;;;1.50;86.88
69772;BME280;57046;45.988;18.664;2023-01-30T08:52:03;101108.88;;;1.51;85.92
69772;BME280;57046;45.988;18.664;2023-01-30T08:54:28;101109.63;;;1.63;84.13
69772;BME280;57046;45.988;18.664;2023-01-30T08:56:53;101075.47;;;1.60;83.81
69772;BME280;57046;45.988;18.664;2023-01-30T08:59:19;101088.69;;;1.72;82.73
69772;BME280;57046;45.988;18.664;2023-01-30T09:01:44;101092.34;;;1.87;82.67
69772;BME280;57046;45.988;18.664;2023-01-30T09:04:09;101093.47;;;1.91;81.41
69772;BME280;57046;45.988;18.664;2023-01-30T09:06:35;101094.91;;;1.99;80.70
69772;BME280;57046;45.988;18.664;2023-01-30T09:09:00;101092.56;;;2.02;80.89
69772;BME280;57046;45.988;18.664;2023-01-30T09:11:26;101071.28;;;2.08;80.75
69772;BME280;57046;45.988;18.664;2023-01-30T09:13:51;101075.13;;;2.17;81.27
69772;BME280;57046;45.988;18.664;2023-01-30T09:16:17;101070.72;;;2.27;81.72
69772;BME280;57046;45.988;18.664;2023-01-30T09:18:43;101074.25;;;2.33;81.30
69772;BME280;57046;45.988;18.664;2023-01-30T09:21:09;101045.56;;;2.18;80.16
69772;BME280;57046;45.988;18.664;2023-01-30T09:23:35;101089.31;;;2.44;80.17
69772;BME280;57046;45.988;18.664;2023-01-30T09:26:01;101077.03;;;2.43;79.68
69772;BME280;57046;45.988;18.664;2023-01-30T09:28:27;101072.94;;;2.62;79.05
69772;BME280;57046;45.988;18.664;2023-01-30T09:30:55;101030.13;;;2.47;78.60
69772;BME280;57046;45.988;18.664;2023-01-30T09:33:21;101030.34;;;2.72;79.01
69772;BME280;57046;45.988;18.664;2023-01-30T09:35:47;101013.28;;;2.68;78.60
69772;BME280;57046;45.988;18.664;2023-01-30T09:38:12;101010.13;;;2.76;79.03
69772;BME280;57046;45.988;18.664;2023-01-30T09:40:49;101020.13;;;2.91;78.60
69772;BME280;57046;45.988;18.664;2023-01-30T09:43:23;101016.50;;;3.07;79.32
69772;BME280;57046;45.988;18.664;2023-01-30T09:46:10;101008.31;;;3.19;80.19
69772;BME280;57046;45.988;18.664;2023-01-30T09:49:00;101009.66;;;3.16;76.68
69772;BME280;57046;45.988;18.664;2023-01-30T09:54:21;101018.25;;;3.28;76.16
69772;BME280;57046;45.988;18.664;2023-01-30T09:57:21;101020.16;;;3.33;75.77
69772;BME280;57046;45.988;18.664;2023-01-30T10:02:49;100991.13;;;3.46;73.81
69772;BME280;57046;45.988;18.664;2023-01-30T10:05:16;100958.28;;;3.51;73.34
69772;BME280;57046;45.988;18.664;2023-01-30T10:08:05;100950.81;;;3.53;73.00
69772;BME280;57046;45.988;18.664;2023-01-30T10:10:48;100959.97;;;3.67;73.51
69772;BME280;57046;45.988;18.664;2023-01-30T10:17:20;100953.63;;;3.93;72.17
69772;BME280;57046;45.988;18.664;2023-01-30T10:22:46;100921.28;;;4.00;71.01
69772;BME280;57046;45.988;18.664;2023-01-30T10:27:52;100940.84;;;4.16;68.87
69772;BME280;57046;45.988;18.664;2023-01-30T10:30:19;100936.56;;;4.20;68.76
69772;BME280;57046;45.988;18.664;2023-01-30T10:35:21;100910.63;;;4.20;68.98
69772;BME280;57046;45.988;18.664;2023-01-30T10:40:38;100901.53;;;4.41;70.34
69772;BME280;57046;45.988;18.664;2023-01-30T10:44:07;100899.41;;;4.58;72.41
69772;BME280;57046;45.988;18.664;2023-01-30T10:47:01;100891.09;;;4.50;71.21
69772;BME280;57046;45.988;18.664;2023-01-30T10:49:14;100866.75;;;4.61;71.88
69772;BME280;57046;45.988;18.664;2023-01-30T10:58:35;100869.91;;;4.89;72.90
69772;BME280;57046;45.988;18.664;2023-01-30T11:03:45;100859.75;;;4.71;70.19
69772;BME280;57046;45.988;18.664;2023-01-30T11:06:14;100848.00;;;4.61;72.20
69772;BME280;57046;45.988;18.664;2023-01-30T11:08:40;100858.44;;;4.68;72.24
69772;BME280;57046;45.988;18.664;2023-01-30T11:13:49;100848.00;;;4.67;72.36
69772;BME280;57046;45.988;18.664;2023-01-30T11:16:15;100838.91;;;4.73;73.09
69772;BME280;57046;45.988;18.664;2023-01-30T11:18:48;100843.19;;;4.69;71.72
69772;BME280;57046;45.988;18.664;2023-01-30T11:21:25;100844.22;;;4.78;71.00
69772;BME280;57046;45.988;18.664;2023-01-30T11:23:53;100831.66;;;4.73;72.05
69772;BME280;57046;45.988;18.664;2023-01-30T11:26:35;100825.25;;;4.69;72.05
69772;BME280;57046;45.988;18.664;2023-01-30T11:29:33;100822.28;;;4.71;73.13
69772;BME280;57046;45.988;18.664;2023-01-30T11:32:05;100805.97;;;4.72;71.66
69772;BME280;57046;45.988;18.664;2023-01-30T11:34:30;100794.66;;;4.90;72.97
69772;BME280;57046;45.988;18.664;2023-01-30T11:37:27;100795.41;;;5.01;72.29
69772;BME280;57046;45.988;18.664;2023-01-30T11:39:55;100785.03;;;4.89;71.59
69772;BME280;57046;45.988;18.664;2023-01-30T11:42:24;100780.19;;;4.96;70.21
69772;BME280;57046;45.988;18.664;2023-01-30T11:44:55;100771.31;;;5.06;70.79
69772;BME280;57046;45.988;18.664;2023-01-30T11:47:25;100769.31;;;5.27;71.18
69772;BME280;57046;45.988;18.664;2023-01-30T11:49:54;100770.34;;;5.36;69.60
69772;BME280;57046;45.988;18.664;2023-01-30T11:52:26;100745.63;;;5.44;70.84
69772;BME280;57046;45.988;18.664;2023-01-30T11:54:57;100753.59;;;5.54;68.66
69772;BME280;57046;45.988;18.664;2023-01-30T11:57:24;100748.50;;;5.57;68.51
69772;BME280;57046;45.988;18.664;2023-01-30T11:59:55;100756.56;;;5.52;67.73
69772;BME280;57046;45.988;18.664;2023-01-30T12:02:33;100746.66;;;5.48;68.49
69772;BME280;57046;45.988;18.664;2023-01-30T12:05:06;100751.00;;;5.44;67.37
69772;BME280;57046;45.988;18.664;2023-01-30T12:07:44;100713.06;;;5.27;67.84
69772;BME280;57046;45.988;18.664;2023-01-30T12:12:51;100724.94;;;5.54;68.74
69772;BME280;57046;45.988;18.664;2023-01-30T12:15:23;100724.88;;;5.59;67.78
69772;BME280;57046;45.988;18.664;2023-01-30T12:28:42;100710.72;;;5.54;66.11
69772;BME280;57046;45.988;18.664;2023-01-30T12:34:08;100707.47;;;5.57;65.33
69772;BME280;57046;45.988;18.664;2023-01-30T13:07:37;100657.50;;;5.71;66.00
69772;BME280;57046;45.988;18.664;2023-01-30T13:10:19;100656.72;;;5.71;65.84
69772;BME280;57046;45.988;18.664;2023-01-30T13:13:08;100660.75;;;5.97;65.82
69772;BME280;57046;45.988;18.664;2023-01-30T13:23:46;100648.44;;;5.96;62.46
69772;BME280;57046;45.988;18.664;2023-01-30T13:26:16;100631.50;;;6.00;63.38
69772;BME280;57046;45.988;18.664;2023-01-30T13:28:46;100639.41;;;6.10;64.58
69772;BME280;57046;45.988;18.664;2023-01-30T13:31:19;100633.47;;;6.13;63.69
69772;BME280;57046;45.988;18.664;2023-01-30T13:33:48;100640.91;;;5.98;64.44
69772;BME280;57046;45.988;18.664;2023-01-30T13:36:23;100643.81;;;6.01;63.10
69772;BME280;57046;45.988;18.664;2023-01-30T13:39:08;100625.31;;;6.00;64.97
69772;BME280;57046;45.988;18.664;2023-01-30T13:41:44;100606.03;;;5.98;65.22
69772;BME280;57046;45.988;18.664;2023-01-30T13:46:45;100603.88;;;6.00;66.32
69772;BME280;57046;45.988;18.664;2023-01-30T13:49:22;100604.41;;;6.02;66.03
69772;BME280;57046;45.988;18.664;2023-01-30T13:57:44;100596.13;;;5.98;64.17
69772;BME280;57046;45.988;18.664;2023-01-30T14:08:26;100543.03;;;5.95;65.09
69772;BME280;57046;45.988;18.664;2023-01-30T14:10:53;100573.56;;;5.99;65.47
69772;BME280;57046;45.988;18.664;2023-01-30T14:13:21;100571.00;;;5.89;64.31
69772;BME280;57046;45.988;18.664;2023-01-30T14:15:58;100575.56;;;5.89;64.21
69772;BME280;57046;45.988;18.664;2023-01-30T14:23:40;100545.44;;;5.97;64.33
69772;BME280;57046;45.988;18.664;2023-01-30T14:26:06;100558.44;;;6.08;63.69
69772;BME280;57046;45.988;18.664;2023-01-30T14:30:59;100555.47;;;6.10;63.88
69772;BME280;57046;45.988;18.664;2023-01-30T14:38:19;100541.56;;;6.08;65.63
69772;BME280;57046;45.988;18.664;2023-01-30T14:41:25;100553.69;;;6.24;65.26
69772;BME280;57046;45.988;18.664;2023-01-30T14:43:51;100560.44;;;6.22;65.73
69772;BME280;57046;45.988;18.664;2023-01-30T14:59:26;100541.78;;;6.11;64.57
69772;BME280;57046;45.988;18.664;2023-01-30T15:07:25;100543.13;;;5.85;68.75
69772;BME280;57046;45.988;18.664;2023-01-30T15:12:42;100515.66;;;5.75;69.86
69772;BME280;57046;45.988;18.664;2023-01-30T15:15:28;100527.88;;;5.86;70.13
69772;BME280;57046;45.988;18.664;2023-01-30T15:23:10;100535.06;;;5.90;71.83
69772;BME280;57046;45.988;18.664;2023-01-30T15:28:33;100512.91;;;5.80;74.97
69772;BME280;57046;45.988;18.664;2023-01-30T15:31:08;100489.28;;;5.58;75.00
69772;BME280;57046;45.988;18.664;2023-01-30T15:33:43;100475.34;;;5.37;75.71
69772;BME280;57046;45.988;18.664;2023-01-30T15:36:31;100487.88;;;5.42;76.57
69772;BME280;57046;45.988;18.664;2023-01-30T15:39:22;100491.06;;;5.44;77.89
69772;BME280;57046;45.988;18.664;2023-01-30T15:41:47;100469.28;;;5.27;77.62
69772;BME280;57046;45.988;18.664;2023-01-30T15:50:17;100489.75;;;5.65;76.42
69772;BME280;57046;45.988;18.664;2023-01-30T15:52:45;100485.06;;;5.52;75.67
69772;BME280;57046;45.988;18.664;2023-01-30T15:55:23;100492.25;;;5.56;75.69
69772;BME280;57046;45.988;18.664;2023-01-30T15:57:54;100511.81;;;5.81;75.37
69772;BME280;57046;45.988;18.664;2023-01-30T16:00:24;100509.38;;;5.84;75.40
69772;BME280;57046;45.988;18.664;2023-01-30T16:02:50;100498.53;;;5.71;75.64
69772;BME280;57046;45.988;18.664;2023-01-30T16:05:21;100488.16;;;5.64;76.83
69772;BME280;57046;45.988;18.664;2023-01-30T16:07:49;100499.00;;;5.54;77.80
69772;BME280;57046;45.988;18.664;2023-01-30T16:10:26;100481.81;;;5.31;79.31
69772;BME280;57046;45.988;18.664;2023-01-30T16:12:55;100495.34;;;5.45;79.18